Flight Track Log - Related Links

Times and Time Zones

All times are in EDT time to prevent confusion due to time zone crossing. See the N682RW flight status page for this flight to view local times or setup timezone preferences in your user account.

Time Position Orientation Groundspeed Altitude Reporting Facility
EDT Latitude Longitude Course Direction KTS MPH feet Rate Location/Type
Wed 06:26:14 PM 42.1892 -83.3578 221° Southwest 188 216 1,400  Level Cleveland Center
Wed 06:26:57 PM 42.1569 -83.3956 221° Southwest 231 266 2,800 2,365 Climbing Cleveland Center
Wed 06:27:58 PM 42.0992 -83.4489 214° Southwest 256 295 5,500 2,625 Climbing Cleveland Center
Wed 06:29:05 PM 42.0272 -83.4986 207° Southwest 279 321 8,400 2,273 Climbing Cleveland Center
Wed 06:30:10 PM 41.9414 -83.5089 185° South 280 322 10,500 1,824 Climbing Cleveland Center
Wed 06:31:10 PM 41.8489 -83.5353 192° South 296 341 12,200 2,050 Climbing Cleveland Center
Wed 06:32:10 PM 41.7525 -83.5558 189° South 328 377 14,600 2,269 Climbing Cleveland Center
Wed 06:33:09 PM 41.6456 -83.5814 190° South 367 422 16,700 2,200 Climbing Cleveland Center
Wed 06:34:10 PM 41.5425 -83.6128 193° South 380 437 19,000 1,934 Climbing Cleveland Center
Wed 06:35:10 PM 41.4394 -83.6467 194° South 385 443 20,600 1,600 Climbing Cleveland Center
Wed 06:36:10 PM 41.3533 -83.7478 221° Southwest 390 449 22,200 1,650 Climbing Cleveland Center
Wed 06:37:10 PM 41.2689 -83.8542 223° Southwest 410 472 23,900 1,455 Climbing Cleveland Center
Wed 06:38:55 PM 41.1264 -84.0325 223° Southwest 426 490 26,200 1,257 Climbing Indianapolis Center
Wed 06:39:57 PM 41.0281 -84.1556 223° Southwest 439 505 27,400 1,161 Climbing Indianapolis Center
Wed 06:40:59 PM 40.9364 -84.2681 223° Southwest 447 514 28,600 1,016 Climbing Indianapolis Center
Wed 06:42:01 PM 40.8442 -84.3831 223° Southwest 454 522 29,500 1,306 Climbing Indianapolis Center
Wed 06:43:03 PM 40.7517 -84.4956 223° Southwest 449 517 31,300 1,210 Climbing Indianapolis Center
Wed 06:44:05 PM 40.6631 -84.6047 223° Southwest 437 503 32,000 339 Climbing Indianapolis Center
Wed 06:45:07 PM 40.5722 -84.7150 223° Southwest 441 507 32,000  Level Indianapolis Center
Wed 06:46:09 PM 40.4681 -84.8425 223° Southwest 436 502 32,000  Level Indianapolis Center
Wed 06:47:11 PM 40.3783 -84.9486 222° Southwest 437 503 32,000  Level Indianapolis Center
Wed 06:48:13 PM 40.2906 -85.0569 223° Southwest 431 496 32,000  Level Indianapolis Center
Wed 06:49:15 PM 40.2011 -85.1625 222° Southwest 429 494 32,000  Level Indianapolis Center
Wed 06:50:18 PM 40.1122 -85.2683 222° Southwest 430 495 32,000  Level Indianapolis Center
Wed 06:51:20 PM 40.0225 -85.3753 222° Southwest 432 497 32,000  Level Indianapolis Center
Wed 06:52:22 PM 39.9183 -85.4994 222° Southwest 431 496 32,000  Level Indianapolis Center
Wed 06:53:24 PM 39.8278 -85.6058 222° Southwest 434 499 32,000  Level Indianapolis Center
Wed 06:54:26 PM 39.7369 -85.7114 222° Southwest 433 498 32,000  Level Indianapolis Center
Wed 06:55:28 PM 39.6478 -85.8181 223° Southwest 432 497 32,000  Level Indianapolis Center
Wed 06:56:30 PM 39.5569 -85.9236 222° Southwest 432 497 32,000  Level Indianapolis Center
Wed 06:57:32 PM 39.4658 -86.0292 222° Southwest 432 497 32,000  Level Indianapolis Center
Wed 06:58:34 PM 39.3750 -86.1353 222° Southwest 433 498 32,000  Level Indianapolis Center
Wed 06:59:36 PM 39.2828 -86.2411 222° Southwest 438 504 32,000  Level Indianapolis Center
Wed 07:00:38 PM 39.1922 -86.3467 222° Southwest 436 502 32,000  Level Indianapolis Center
Wed 07:01:40 PM 39.0856 -86.4689 222° Southwest 437 503 32,000  Level Indianapolis Center
Wed 07:02:42 PM 38.9939 -86.5733 222° Southwest 437 503 32,000  Level Indianapolis Center
Wed 07:03:44 PM 38.9125 -86.6656 221° Southwest 437 503 32,000  Level Indianapolis Center
Wed 07:04:46 PM 38.8047 -86.7872 221° Southwest 430 495 32,000  Level Indianapolis Center
Wed 07:05:48 PM 38.7144 -86.8889 221° Southwest 431 496 32,000  Level Indianapolis Center
Wed 07:06:50 PM 38.6239 -86.9908 221° Southwest 435 501 32,000  Level Indianapolis Center
Wed 07:07:52 PM 38.5342 -87.0919 221° Southwest 433 498 32,000  Level Indianapolis Center
Wed 07:08:54 PM 38.4444 -87.1931 221° Southwest 436 502 32,000  Level Indianapolis Center
Wed 07:09:56 PM 38.3364 -87.3128 221° Southwest 437 503 32,000  Level Indianapolis Center
Wed 07:10:58 PM 38.2467 -87.4128 221° Southwest 433 498 32,000  Level Indianapolis Center
Wed 07:12:00 PM 38.1544 -87.5139 221° Southwest 437 503 32,000  Level Indianapolis Center
Wed 07:13:02 PM 38.0625 -87.6142 221° Southwest 437 503 32,000  Level Indianapolis Center
Wed 07:14:04 PM 37.9711 -87.7156 221° Southwest 435 501 32,000  Level Indianapolis Center
Wed 07:15:06 PM 37.8839 -87.8233 224° Southwest 437 503 32,000  Level Indianapolis Center
Wed 07:16:08 PM 37.8042 -87.9408 229° Southwest 439 505 32,000  Level Indianapolis Center
Wed 07:17:10 PM 37.7069 -88.0828 229° Southwest 435 501 32,000  Level Indianapolis Center
Wed 07:18:12 PM 37.6261 -88.1983 229° Southwest 436 502 32,000  Level Indianapolis Center
Wed 07:18:46 PM 37.5831 -88.2739 234° Southwest 445 512 32,000  Level Memphis Center
Wed 07:19:14 PM 37.5472 -88.3125 221° Southwest 440 506 32,000  Level Indianapolis Center
Wed 07:19:46 PM 37.5017 -88.3858 232° Southwest 440 506 32,000  Level Memphis Center
Wed 07:20:46 PM 37.4200 -88.5003 228° Southwest 440 506 32,000  Level Memphis Center
Wed 07:21:46 PM 37.3364 -88.6194 229° Southwest 446 513 32,000  Level Memphis Center
Wed 07:22:46 PM 37.2547 -88.7361 229° Southwest 446 513 32,000  Level Memphis Center
Wed 07:23:46 PM 37.1747 -88.8497 229° Southwest 446 513 32,000  Level Memphis Center
Wed 07:24:46 PM 37.0928 -88.9656 228° Southwest 446 513 32,000  Level Memphis Center
Wed 07:25:46 PM 37.0106 -89.0786 228° Southwest 446 513 32,000  Level Memphis Center
Wed 07:26:46 PM 36.9286 -89.1942 228° Southwest 446 513 32,000  Level Memphis Center
Wed 07:27:46 PM 36.8442 -89.3094 228° Southwest 451 519 32,000  Level Memphis Center
Wed 07:28:46 PM 36.7594 -89.4219 227° Southwest 451 519 32,000  Level Memphis Center
Wed 07:29:46 PM 36.6792 -89.5367 229° Southwest 451 519 32,000  Level Memphis Center
Wed 07:30:46 PM 36.5964 -89.6539 229° Southwest 451 519 32,000  Level Memphis Center
Wed 07:31:46 PM 36.5094 -89.7658 226° Southwest 451 519 32,000  Level Memphis Center
Wed 07:32:46 PM 36.4267 -89.8797 228° Southwest 451 519 32,000  Level Memphis Center
Wed 07:33:46 PM 36.3436 -89.9936 228° Southwest 451 519 32,000  Level Memphis Center
Wed 07:34:46 PM 36.2606 -90.1047 227° Southwest 451 519 32,000  Level Memphis Center
Wed 07:35:45 PM 36.1772 -90.2181 228° Southwest 446 513 32,000  Level Memphis Center
Wed 07:36:46 PM 36.0919 -90.3286 226° Southwest 451 519 32,000  Level Memphis Center
Wed 07:37:45 PM 36.0083 -90.4417 228° Southwest 451 519 32,000  Level Memphis Center
Wed 07:38:46 PM 35.9228 -90.5519 226° Southwest 451 519 32,000  Level Memphis Center
Wed 07:39:46 PM 35.8392 -90.6669 228° Southwest 451 519 32,000  Level Memphis Center
Wed 07:40:46 PM 35.7556 -90.7767 227° Southwest 451 519 32,000  Level Memphis Center
Wed 07:41:46 PM 35.6736 -90.8911 229° Southwest 442 509 32,000  Level Memphis Center
Wed 07:42:46 PM 35.5981 -90.9903 227° Southwest 442 509 32,000  Level Memphis Center
Wed 07:43:46 PM 35.5119 -91.1044 227° Southwest 448 516 32,000  Level Memphis Center
Wed 07:44:45 PM 35.4258 -91.2158 227° Southwest 454 522 32,000  Level Memphis Center
Wed 07:45:46 PM 35.3394 -91.3269 226° Southwest 454 522 32,000  Level Memphis Center
Wed 07:46:46 PM 35.2531 -91.4403 227° Southwest 454 522 32,000  Level Memphis Center
Wed 07:47:46 PM 35.1644 -91.5508 226° Southwest 454 522 32,000  Level Memphis Center
Wed 07:48:46 PM 35.0819 -91.6639 228° Southwest 454 522 32,000  Level Memphis Center
Wed 07:49:46 PM 34.9931 -91.7792 227° Southwest 454 522 32,000  Level Memphis Center
Wed 07:50:46 PM 34.9061 -91.8892 226° Southwest 454 522 32,000  Level Memphis Center
Wed 07:51:46 PM 34.8192 -91.9989 226° Southwest 454 522 32,000  Level Memphis Center
Wed 07:52:46 PM 34.7322 -92.1133 227° Southwest 454 522 32,000  Level Memphis Center
Wed 07:53:46 PM 34.6269 -92.1869 210° Southwest 449 517 32,000  Level Memphis Center
Wed 07:54:46 PM 34.5033 -92.2119 189° South 435 501 32,000  Level Memphis Center
Wed 07:55:45 PM 34.3797 -92.2369 189° South 441 507 32,000 500 Level Memphis Center
Wed 07:56:46 PM 34.2606 -92.2594 189° South 441 507 33,000 942 Climbing Memphis Center
Wed 07:57:46 PM 34.1328 -92.2819 188° South 441 507 33,900 500 Climbing Memphis Center
Wed 07:58:46 PM 34.0114 -92.3092 191° South 441 507 34,000 43 Climbing Memphis Center
Wed 08:00:06 PM 33.8536 -92.3367 188° South 415 478 34,000  Level Fort Worth Center
Wed 08:01:06 PM 33.7294 -92.3586 188° South 429 494 34,000  Level Fort Worth Center
Wed 08:02:06 PM 33.6092 -92.3781 188° South 439 505 34,000  Level Fort Worth Center
Wed 08:03:06 PM 33.4933 -92.4022 190° South 439 505 34,000  Level Fort Worth Center
Wed 08:04:06 PM 33.3731 -92.4214 188° South 439 505 34,000  Level Fort Worth Center
Wed 08:05:06 PM 33.2528 -92.4431 189° South 446 513 34,000  Level Fort Worth Center
Wed 08:06:06 PM 33.1575 -92.4608 189° South 440 506 34,000  Level Fort Worth Center
Wed 08:07:06 PM 33.0269 -92.4856 189° South 440 506 34,000  Level Fort Worth Center
Wed 08:08:06 PM 32.9089 -92.5069 189° South 433 498 34,000  Level Fort Worth Center
Wed 08:09:06 PM 32.7908 -92.5281 189° South 433 498 34,000  Level Fort Worth Center
Wed 08:10:06 PM 32.6847 -92.5931 207° Southwest 423 487 34,000  Level Fort Worth Center
Wed 08:11:06 PM 32.5836 -92.6822 217° Southwest 430 495 34,000  Level Fort Worth Center
Wed 08:12:06 PM 32.4847 -92.7664 216° Southwest 440 506 34,000  Level Fort Worth Center
Wed 08:13:38 PM 32.3236 -92.9064 216° Southwest 442 509 34,000  Level Houston Center
Wed 08:14:40 PM 32.2236 -92.9892 215° Southwest 442 509 34,000  Level Houston Center
Wed 08:15:42 PM 32.1233 -93.0722 215° Southwest 443 510 34,000  Level Houston Center
Wed 08:16:43 PM 32.0217 -93.1569 215° Southwest 447 514 34,000  Level Houston Center
Wed 08:17:45 PM 31.9203 -93.2419 215° Southwest 449 517 34,000  Level Houston Center
Wed 08:18:47 PM 31.7989 -93.3431 215° Southwest 449 517 34,000  Level Houston Center
Wed 08:19:49 PM 31.6972 -93.4289 216° Southwest 451 519 34,000  Level Houston Center
Wed 08:20:51 PM 31.5994 -93.5217 219° Southwest 453 521 34,000  Level Houston Center
Wed 08:21:53 PM 31.4853 -93.6250 218° Southwest 455 524 34,000 -585 Level Houston Center
Wed 08:22:54 PM 31.3831 -93.7167 217° Southwest 458 527 32,800 -2,308 Descending Houston Center
Wed 08:24:00 PM 31.2768 -93.7900 221° Southwest  Level FlightAware Approximate
Wed 08:26:00 PM 31.0808 -93.9903 218° Southwest 454 522 24,500  Level Houston Center
Wed 08:27:02 PM 30.9828 -94.0783 218° Southwest 443 510 21,700 -2,565 Descending Houston Center
Wed 08:28:04 PM 30.8894 -94.1639 218° Southwest 435 501 19,200 -2,049 Descending Houston Center
Wed 08:29:05 PM 30.7969 -94.2458 217° Southwest 424 488 17,500 -1,706 Descending Houston Center
Wed 08:29:46 PM 30.7208 -94.3150 218° Southwest 406 467 16,300 -1,355 Descending Houston Center
Wed 08:30:07 PM 30.7106 -94.3242 217° Southwest 407 468 16,100 -960 Descending Houston Center
Wed 08:30:36 PM 30.6514 -94.3778 218° Southwest 396 456 15,500 -1,161 Descending Houston Center
Wed 08:31:00 PM 30.6464 -94.3658 218° Southwest  Level FlightAware Approximate
Wed 08:31:09 PM 30.6067 -94.4169 217° Southwest 396 456 14,900  Level Houston Center
Wed 08:31:43 PM 30.5567 -94.4606 217° Southwest 389 448 14,300 -968 Descending Houston Center
Wed 08:32:11 PM 30.5219 -94.4931 219° Southwest 389 448 13,900 -982 Descending Houston Center
Wed 08:32:38 PM 30.4842 -94.5356 224° Southwest 383 441 13,400 -885 Descending Houston Center
Wed 08:33:12 PM 30.4494 -94.5869 232° Southwest 374 430 13,000 -353 Descending Houston Center
Wed 08:33:46 PM 30.4128 -94.6467 235° Southwest 368 423 13,000  Level Houston Center
Wed 08:34:14 PM 30.3883 -94.6850 234° Southwest 365 420 13,000  Level Houston Center
Wed 08:34:47 PM 30.3542 -94.7364 232° Southwest 347 399 13,000 -194 Level Houston Center
Wed 08:35:16 PM 30.3306 -94.7742 234° Southwest 350 403 12,800 -689 Descending Houston Center
Wed 08:35:48 PM 30.2956 -94.8264 232° Southwest 348 400 12,300 -871 Descending Houston Center
Wed 08:36:18 PM 30.2725 -94.8644 235° Southwest 349 402 11,900 -885 Descending Houston Center
Wed 08:36:49 PM 30.2369 -94.9158 231° Southwest 349 402 11,400 -885 Descending Houston Center
Wed 08:37:19 PM 30.2147 -94.9522 235° Southwest 345 397 11,000 -1,091 Descending Houston Center
Wed 08:37:44 PM 30.1858 -94.9972 233° Southwest 344 396 10,400 -968 Descending Houston Center
Wed 08:38:21 PM 30.1586 -95.0403 234° Southwest 342 394 10,000 -358 Descending Houston Center
Wed 08:38:51 PM 30.1100 -95.0842 218° Southwest 346 398 10,000  Level Houston Center
Wed 08:39:23 PM 30.0781 -95.0967 199° South 352 405 10,000  Level Houston Center
Wed 08:39:53 PM 30.0169 -95.1222 200° South 356 410 10,000  Level Houston Center
Wed 08:40:24 PM 29.9689 -95.1436 201° Southwest 350 403 10,000  Level Houston Center
Wed 08:40:48 PM 29.9322 -95.1592 200° South 351 404 10,000  Level Houston Center
Wed 08:41:26 PM 29.8758 -95.1831 200° South 355 409 10,000 -90 Level Houston Center
Wed 08:41:55 PM 29.8272 -95.2056 202° Southwest 340 391 9,900 -484 Descending Houston Center
Wed 08:42:28 PM 29.7883 -95.2206 199° South 344 396 9,500 -984 Descending Houston Center
Wed 08:42:56 PM 29.7417 -95.2353 195° South 311 358 8,900 -1,161 Descending Houston Center
Wed 08:43:30 PM 29.7050 -95.2347 179° South 315 362 8,300 -1,279 Descending Houston Center
Wed 08:43:57 PM 29.6536 -95.2364 182° South 310 357 7,600 -1,161 Descending Houston Center
Wed 08:44:32 PM 29.6208 -95.2378 182° South 313 360 7,100 -1,071 Descending Houston Center
Wed 08:44:53 PM 29.5761 -95.2386 181° South 305 351 6,600 -885 Descending Houston Center
Wed 08:45:33 PM 29.5306 -95.2661 208° Southwest 302 348 6,200 -393 Descending Houston Center
Wed 08:45:54 PM 29.5139 -95.2917 233° Southwest 264 304 6,200 -677 Level Houston Center
Wed 08:46:35 PM 29.4894 -95.3322 235° Southwest 263 303 5,500 -1,881 Descending Houston Center
Wed 08:47:01 PM 29.4917 -95.3714 274° West 237 273 4,100 -2,459 Descending Houston Center
Wed 08:47:36 PM 29.5156 -95.3936 321° Northwest 243 280 3,000 -1,929 Descending Houston Center
Wed 08:47:57 PM 29.5417 -95.3892 North 223 257 2,300 -968 Descending Houston Center
Wed 08:48:38 PM 29.5664 -95.3631 43° Northeast 224 258 2,000 -636 Descending Houston Center
Wed 08:49:03 PM 29.5878 -95.3428 40° Northeast 186 214 1,600 -885 Descending Houston Center
Wed 08:49:39 PM 29.6044 -95.3242 44° Northeast 199 229 1,100 -1,071 Descending Houston Center
Wed 08:49:59 PM 29.6183 -95.3103 41° Northeast 148 170 600 -871 Descending Houston Center
Wed 08:50:41 PM 29.6350 -95.2903 46° Northeast 171 197 200 -571 Descending Houston Center

Login

Don't have an account? Register now (free) for customized features, flight alerts, and more!